createdAt,value
2023-06-27T00:02:18.972Z,0.60
2023-06-27T00:04:47.552Z,0.60
2023-06-27T00:07:17.291Z,0.50
2023-06-27T00:09:45.684Z,0.60
2023-06-27T00:12:14.025Z,0.60
2023-06-27T00:14:45.950Z,0.57
2023-06-27T00:17:14.229Z,0.60
2023-06-27T00:19:42.711Z,0.60
2023-06-27T00:22:11.172Z,0.60
2023-06-27T00:24:41.650Z,0.50
2023-06-27T00:27:10.131Z,0.60
2023-06-27T00:29:39.872Z,0.60
2023-06-27T00:32:09.628Z,0.60
2023-06-27T00:34:39.828Z,0.60
2023-06-27T00:37:10.535Z,0.52
2023-06-27T00:39:42.694Z,0.60
2023-06-27T00:42:12.243Z,0.50
2023-06-27T00:44:40.471Z,0.50
2023-06-27T00:47:09.354Z,0.60
2023-06-27T00:49:38.774Z,0.60
2023-06-27T00:52:09.152Z,0.50
2023-06-27T00:54:38.219Z,0.55
2023-06-27T00:57:08.827Z,0.50
2023-06-27T00:59:39.532Z,0.60
2023-06-27T01:02:09.770Z,0.50
2023-06-27T01:04:38.182Z,0.50
2023-06-27T01:07:12.781Z,0.60
2023-06-27T01:09:52.325Z,0.50
2023-06-27T01:12:35.904Z,0.60
2023-06-27T01:15:07.988Z,0.55
2023-06-27T01:17:39.852Z,0.60
2023-06-27T01:20:12.244Z,0.60
2023-06-27T01:22:51.184Z,0.50
2023-06-27T01:25:21.032Z,0.50
2023-06-27T01:27:49.331Z,0.60
2023-06-27T01:30:18.793Z,0.60
2023-06-27T01:32:54.720Z,0.60
2023-06-27T01:35:33.820Z,0.60
2023-06-27T01:38:09.563Z,0.60
2023-06-27T01:40:45.020Z,0.52
2023-06-27T01:43:15.970Z,0.60
2023-06-27T01:45:47.597Z,0.55
2023-06-27T01:48:17.642Z,0.60
2023-06-27T01:50:45.934Z,0.60
2023-06-27T01:53:14.335Z,0.50
2023-06-27T01:55:46.814Z,0.60
2023-06-27T01:58:15.357Z,0.60
2023-06-27T02:00:44.319Z,0.60
2023-06-27T02:03:14.653Z,0.60
2023-06-27T02:05:43.118Z,0.60
2023-06-27T02:08:11.478Z,0.60
2023-06-27T02:10:39.824Z,0.60
2023-06-27T02:13:12.369Z,0.60
2023-06-27T02:15:41.570Z,0.50
2023-06-27T02:18:10.221Z,0.57
2023-06-27T02:20:38.905Z,0.50
2023-06-27T02:23:07.249Z,0.60
2023-06-27T02:25:35.672Z,0.60
2023-06-27T02:28:04.615Z,0.60
2023-06-27T02:30:35.741Z,0.60
2023-06-27T02:33:04.331Z,0.60
2023-06-27T02:35:33.247Z,0.60
2023-06-27T02:38:01.697Z,0.60
2023-06-27T02:40:30.558Z,0.60
2023-06-27T02:42:58.968Z,0.60
2023-06-27T02:45:27.290Z,0.60
2023-06-27T02:47:56.944Z,0.60
2023-06-27T02:50:25.419Z,0.60
2023-06-27T02:52:53.773Z,0.60
2023-06-27T02:55:22.191Z,0.60
2023-06-27T02:57:50.846Z,0.60
2023-06-27T03:00:20.986Z,0.60
2023-06-27T03:02:49.487Z,0.60
2023-06-27T03:05:19.402Z,0.60
2023-06-27T03:07:48.155Z,0.60
2023-06-27T03:10:16.610Z,0.60
2023-06-27T03:12:45.369Z,0.60
2023-06-27T03:15:13.781Z,0.60
2023-06-27T03:17:43.224Z,0.60
2023-06-27T03:20:13.749Z,0.60
2023-06-27T03:22:44.509Z,0.60
2023-06-27T03:25:12.992Z,0.55
2023-06-27T03:27:41.365Z,0.60
2023-06-27T03:30:12.989Z,0.50
2023-06-27T03:32:42.529Z,0.60
2023-06-27T03:35:11.081Z,0.60
2023-06-27T03:37:39.834Z,0.60
2023-06-27T03:40:10.752Z,0.60
2023-06-27T03:42:39.475Z,0.60
2023-06-27T03:45:09.659Z,0.60
2023-06-27T03:47:40.326Z,0.60
2023-06-27T03:50:09.490Z,0.60
2023-06-27T03:52:37.930Z,0.60
2023-06-27T03:55:07.096Z,0.60
2023-06-27T03:57:36.826Z,0.55
2023-06-27T04:00:08.037Z,0.60
2023-06-27T04:02:43.682Z,0.50
2023-06-27T04:05:13.240Z,0.60
2023-06-27T04:07:42.728Z,0.60
2023-06-27T04:10:12.194Z,0.50
2023-06-27T04:12:41.869Z,0.50
2023-06-27T04:15:11.871Z,0.57
2023-06-27T04:17:41.154Z,0.45
2023-06-27T04:20:12.528Z,0.60
2023-06-27T04:22:41.266Z,0.50
2023-06-27T04:25:12.175Z,0.50
2023-06-27T04:27:42.126Z,0.50
2023-06-27T04:30:11.960Z,0.50
2023-06-27T04:32:40.372Z,0.50
2023-06-27T04:35:10.924Z,0.50
2023-06-27T04:37:39.438Z,0.50
2023-06-27T04:40:10.946Z,0.57
2023-06-27T04:42:41.129Z,0.50
2023-06-27T04:45:10.411Z,0.60
2023-06-27T04:47:38.971Z,0.50
2023-06-27T04:50:08.421Z,0.60
2023-06-27T04:52:36.728Z,0.60
2023-06-27T04:55:05.780Z,0.60
2023-06-27T04:57:34.147Z,0.60
2023-06-27T05:00:06.231Z,0.60
2023-06-27T05:02:41.354Z,0.60
2023-06-27T05:05:17.124Z,0.60
2023-06-27T05:07:45.484Z,0.60
2023-06-27T05:10:13.984Z,0.60
2023-06-27T05:12:42.309Z,0.60
2023-06-27T05:15:12.502Z,0.60
2023-06-27T05:17:40.845Z,0.60
2023-06-27T05:20:13.248Z,0.50
2023-06-27T05:22:41.603Z,0.60
2023-06-27T05:25:10.896Z,0.60
2023-06-27T05:27:39.395Z,0.60
2023-06-27T05:30:09.557Z,0.60
2023-06-27T05:32:39.265Z,0.50
2023-06-27T05:35:08.576Z,0.60
2023-06-27T05:37:36.874Z,0.50
2023-06-27T05:40:06.447Z,0.60
2023-06-27T05:42:35.306Z,0.60
2023-06-27T05:45:04.062Z,0.50
2023-06-27T05:47:32.983Z,0.52
2023-06-27T05:50:03.179Z,0.60
2023-06-27T05:52:31.580Z,0.60
2023-06-27T05:55:04.571Z,0.60
2023-06-27T05:57:33.144Z,0.60
2023-06-27T06:00:02.044Z,0.60
2023-06-27T06:02:41.493Z,0.60
2023-06-27T06:05:12.860Z,0.50
2023-06-27T06:07:44.552Z,0.55
2023-06-27T06:10:14.350Z,0.60
2023-06-27T06:12:44.301Z,0.50
2023-06-27T06:15:12.868Z,0.60
2023-06-27T06:17:41.258Z,0.50
2023-06-27T06:20:12.446Z,0.50
2023-06-27T06:22:41.032Z,0.50
2023-06-27T06:25:10.645Z,0.50
2023-06-27T06:27:38.981Z,0.60
2023-06-27T06:30:09.506Z,0.50
2023-06-27T06:32:37.941Z,0.50
2023-06-27T06:35:08.053Z,0.50
2023-06-27T06:37:38.301Z,0.50
2023-06-27T06:40:08.501Z,0.60
2023-06-27T06:42:37.047Z,0.50
2023-06-27T06:45:09.034Z,0.50
2023-06-27T06:47:37.520Z,0.50
2023-06-27T06:50:07.015Z,0.50
2023-06-27T06:52:36.785Z,0.50
2023-06-27T06:55:05.869Z,0.40
2023-06-27T06:57:34.229Z,0.50
2023-06-27T07:00:02.562Z,0.50
2023-06-27T07:02:30.902Z,0.50
2023-06-27T07:04:59.306Z,0.50
2023-06-27T07:07:27.843Z,0.50
2023-06-27T07:09:57.763Z,0.50
2023-06-27T07:12:26.052Z,0.50
2023-06-27T07:14:54.408Z,0.50
2023-06-27T07:17:22.728Z,0.55
2023-06-27T07:19:51.119Z,0.50
2023-06-27T07:22:20.757Z,0.47
2023-06-27T07:24:50.671Z,0.50
2023-06-27T07:27:20.390Z,0.50
2023-06-27T07:29:48.722Z,0.50
2023-06-27T07:32:17.750Z,0.50
2023-06-27T07:34:46.062Z,0.52
2023-06-27T07:37:14.410Z,0.60
2023-06-27T07:39:42.851Z,0.50
2023-06-27T07:42:12.429Z,0.50
2023-06-27T07:44:42.099Z,0.50
2023-06-27T07:47:10.365Z,0.50
2023-06-27T07:49:39.364Z,0.50
2023-06-27T07:52:10.403Z,0.50
2023-06-27T07:54:39.281Z,0.50
2023-06-27T07:57:09.247Z,0.57
2023-06-27T07:59:37.538Z,0.50
2023-06-27T08:02:08.044Z,0.50
2023-06-27T08:04:36.409Z,0.55
2023-06-27T08:07:05.022Z,0.50
2023-06-27T08:09:33.582Z,0.50
2023-06-27T08:12:03.861Z,0.50
2023-06-27T08:14:32.670Z,0.57
2023-06-27T08:17:02.160Z,0.50
2023-06-27T08:19:31.843Z,0.50
2023-06-27T08:22:00.152Z,0.50
2023-06-27T08:24:28.492Z,0.50
2023-06-27T08:26:57.026Z,0.50
2023-06-27T08:29:27.009Z,0.50
2023-06-27T08:32:00.005Z,0.60
2023-06-27T08:34:30.899Z,0.47
2023-06-27T08:37:00.632Z,0.50
2023-06-27T08:39:30.127Z,0.60
2023-06-27T08:41:59.091Z,0.50
2023-06-27T08:44:27.444Z,0.50
2023-06-27T08:47:01.140Z,0.60
2023-06-27T08:49:31.662Z,0.50
2023-06-27T08:52:04.387Z,0.60
2023-06-27T08:54:38.479Z,0.50
2023-06-27T08:57:08.789Z,0.60
2023-06-27T08:59:37.774Z,0.50
2023-06-27T09:02:08.727Z,0.50
2023-06-27T09:04:37.752Z,0.52
2023-06-27T09:07:08.072Z,0.50
2023-06-27T09:09:37.871Z,0.50
2023-06-27T09:12:07.419Z,0.50
2023-06-27T09:14:37.032Z,0.40
2023-06-27T09:17:07.058Z,0.40
2023-06-27T09:19:38.089Z,0.40
2023-06-27T09:22:08.523Z,0.50
2023-06-27T09:24:41.813Z,0.50
2023-06-27T09:27:30.916Z,0.50
2023-06-27T09:30:03.873Z,0.40
2023-06-27T09:32:32.774Z,0.50
2023-06-27T09:35:03.812Z,0.50
2023-06-27T09:40:20.811Z,0.40
2023-06-27T09:42:55.732Z,0.50
2023-06-27T09:45:28.441Z,0.40
2023-06-27T09:47:56.810Z,0.40
2023-06-27T09:50:28.382Z,0.50
2023-06-27T09:53:00.842Z,0.40
2023-06-27T09:55:29.673Z,0.40
2023-06-27T09:57:59.565Z,0.40
2023-06-27T10:00:30.077Z,0.40
2023-06-27T10:02:58.564Z,0.40
2023-06-27T10:05:30.133Z,0.40
2023-06-27T10:08:01.811Z,0.47
2023-06-27T10:10:33.167Z,0.40
2023-06-27T10:13:01.973Z,0.40
2023-06-27T10:15:31.135Z,0.40
2023-06-27T10:18:00.563Z,0.40
2023-06-27T10:20:28.921Z,0.50
2023-06-27T10:23:01.096Z,0.47
2023-06-27T10:25:29.549Z,0.40
2023-06-27T10:28:07.440Z,0.30
2023-06-27T10:30:44.944Z,0.40
2023-06-27T10:33:29.512Z,0.40
2023-06-27T10:36:04.373Z,0.50
2023-06-27T10:38:38.981Z,0.35
2023-06-27T10:41:25.591Z,0.40
2023-06-27T10:43:57.717Z,0.40
2023-06-27T10:46:28.247Z,0.50
2023-06-27T10:49:01.944Z,0.40
2023-06-27T10:51:37.040Z,0.40
2023-06-27T10:54:26.001Z,0.35
2023-06-27T10:56:55.543Z,0.40
2023-06-27T10:59:25.764Z,0.40
2023-06-27T11:02:00.921Z,0.40
2023-06-27T11:04:42.895Z,0.40
2023-06-27T11:07:18.451Z,0.40
2023-06-27T11:09:55.978Z,0.40
2023-06-27T11:12:25.213Z,0.40
2023-06-27T11:14:56.292Z,0.40
2023-06-27T11:17:25.506Z,0.40
2023-06-27T11:19:54.110Z,0.40
2023-06-27T11:22:23.042Z,0.40
2023-06-27T11:24:52.741Z,0.50
2023-06-27T11:27:21.232Z,0.38
2023-06-27T11:29:49.542Z,0.40
2023-06-27T11:32:17.933Z,0.32
2023-06-27T11:34:46.842Z,0.40
2023-06-27T11:37:15.639Z,0.40
2023-06-27T11:39:54.592Z,0.40
2023-06-27T11:42:34.877Z,0.35
2023-06-27T11:45:04.102Z,0.40
2023-06-27T11:47:33.344Z,0.40
2023-06-27T11:50:09.894Z,0.43
2023-06-27T11:52:39.182Z,0.40
2023-06-27T11:55:09.860Z,0.40
2023-06-27T11:57:46.278Z,0.50
2023-06-27T12:00:21.655Z,0.50
2023-06-27T12:02:53.672Z,0.40
2023-06-27T12:05:24.357Z,0.40
2023-06-27T12:08:02.825Z,0.50
2023-06-27T12:10:33.704Z,0.40
2023-06-27T12:13:04.475Z,0.40
2023-06-27T12:15:32.809Z,0.35
2023-06-27T12:18:03.419Z,0.43
2023-06-27T12:20:43.094Z,0.47
2023-06-27T12:23:12.803Z,0.50
2023-06-27T12:25:42.677Z,0.40
2023-06-27T12:28:11.274Z,0.50
2023-06-27T12:30:40.107Z,0.50
2023-06-27T12:33:10.421Z,0.43
2023-06-27T12:35:39.811Z,0.50
2023-06-27T12:38:08.156Z,0.50
2023-06-27T12:40:39.911Z,0.50
2023-06-27T12:43:10.910Z,0.55
2023-06-27T12:45:44.216Z,0.50
2023-06-27T12:48:13.273Z,0.50
2023-06-27T12:50:41.718Z,0.50
2023-06-27T12:53:10.334Z,0.50
2023-06-27T12:55:38.637Z,0.50
2023-06-27T12:58:06.866Z,0.50
2023-06-27T13:00:39.116Z,0.50
2023-06-27T13:03:17.744Z,0.50
2023-06-27T13:05:48.394Z,0.50
2023-06-27T13:08:20.543Z,0.43
2023-06-27T13:10:49.912Z,0.50
2023-06-27T13:13:18.600Z,0.45
2023-06-27T13:16:00.251Z,0.40
2023-06-27T13:18:37.057Z,0.40
2023-06-27T13:21:05.442Z,0.40
2023-06-27T13:23:33.723Z,0.40
2023-06-27T13:26:03.092Z,0.40
2023-06-27T13:28:31.354Z,0.40
2023-06-27T13:31:01.019Z,0.47
2023-06-27T13:33:29.428Z,0.40
2023-06-27T13:35:57.765Z,0.40
2023-06-27T13:38:26.088Z,0.50
2023-06-27T13:40:54.372Z,0.40
2023-06-27T13:43:22.675Z,0.50
2023-06-27T13:45:54.844Z,0.40
2023-06-27T13:48:27.617Z,0.40
2023-06-27T13:50:56.083Z,0.40
2023-06-27T13:53:25.175Z,0.40
2023-06-27T13:55:53.941Z,0.40
2023-06-27T13:58:25.124Z,0.30
2023-06-27T14:00:54.748Z,0.40
2023-06-27T14:03:25.007Z,0.40
2023-06-27T14:05:53.368Z,0.40
2023-06-27T14:08:22.434Z,0.40
2023-06-27T14:10:51.470Z,0.40
2023-06-27T14:13:20.885Z,0.45
2023-06-27T14:15:49.200Z,0.40
2023-06-27T14:18:17.455Z,0.40
2023-06-27T14:20:47.076Z,0.40
2023-06-27T14:23:18.579Z,0.43
2023-06-27T14:25:48.626Z,0.40
2023-06-27T14:28:17.336Z,0.40
2023-06-27T14:30:45.604Z,0.40
2023-06-27T14:33:17.773Z,0.40
2023-06-27T14:35:47.408Z,0.40
2023-06-27T14:38:15.742Z,0.40
2023-06-27T14:40:44.156Z,0.40
2023-06-27T14:43:13.778Z,0.40
2023-06-27T14:45:42.221Z,0.40
2023-06-27T14:48:11.160Z,0.40
2023-06-27T14:50:39.616Z,0.40
2023-06-27T14:53:10.087Z,0.30
2023-06-27T14:55:38.408Z,0.40
2023-06-27T14:58:06.723Z,0.30
2023-06-27T15:00:35.167Z,0.40
2023-06-27T15:03:03.485Z,0.40
2023-06-27T15:05:31.928Z,0.32
2023-06-27T15:08:00.310Z,0.40
2023-06-27T15:10:30.031Z,0.30
2023-06-27T15:12:58.977Z,0.40
2023-06-27T15:15:27.225Z,0.40
2023-06-27T15:17:55.829Z,0.40
2023-06-27T15:20:25.385Z,0.40
2023-06-27T15:22:53.671Z,0.40
2023-06-27T15:25:22.080Z,0.40
2023-06-27T15:27:51.702Z,0.40
2023-06-27T15:30:20.060Z,0.40
2023-06-27T15:32:48.374Z,0.40
2023-06-27T15:35:17.006Z,0.40
2023-06-27T15:37:45.401Z,0.35
2023-06-27T15:40:15.425Z,0.30
2023-06-27T15:42:43.756Z,0.40
2023-06-27T15:45:13.648Z,0.50
2023-06-27T15:47:41.999Z,0.50
2023-06-27T15:50:11.317Z,0.40
2023-06-27T15:52:41.097Z,0.40
2023-06-27T15:55:10.261Z,0.40
2023-06-27T15:57:38.737Z,0.40
2023-06-27T16:00:08.831Z,0.43
2023-06-27T16:02:46.174Z,0.40
2023-06-27T16:05:15.127Z,0.40
2023-06-27T16:07:43.862Z,0.40
2023-06-27T16:10:12.571Z,0.30
2023-06-27T16:12:40.871Z,0.38
2023-06-27T16:15:10.581Z,0.40
2023-06-27T16:17:38.998Z,0.30
2023-06-27T16:20:11.172Z,0.40
2023-06-27T16:22:39.625Z,0.38
2023-06-27T16:25:09.936Z,0.40
2023-06-27T16:27:38.330Z,0.40
2023-06-27T16:30:10.939Z,0.40
2023-06-27T16:32:40.951Z,0.40
2023-06-27T16:35:11.892Z,0.50
2023-06-27T16:37:40.230Z,0.40
2023-06-27T16:40:10.383Z,0.40
2023-06-27T16:42:38.624Z,0.40
2023-06-27T16:45:09.437Z,0.40
2023-06-27T16:47:38.130Z,0.40
2023-06-27T16:50:07.855Z,0.50
2023-06-27T16:52:37.635Z,0.50
2023-06-27T16:55:06.932Z,0.50
2023-06-27T16:57:36.548Z,0.50
2023-06-27T17:00:08.100Z,0.47
2023-06-27T17:02:37.061Z,0.40
2023-06-27T17:05:07.099Z,0.50
2023-06-27T17:07:36.841Z,0.40
2023-06-27T17:10:05.973Z,0.40
2023-06-27T17:12:34.312Z,0.40
2023-06-27T17:15:02.891Z,0.30
2023-06-27T17:17:31.691Z,0.40
2023-06-27T17:20:00.004Z,0.40
2023-06-27T17:22:32.424Z,0.40
2023-06-27T17:25:02.846Z,0.40
2023-06-27T17:27:31.176Z,0.40
2023-06-27T17:29:59.570Z,0.40
2023-06-27T17:32:28.029Z,0.32
2023-06-27T17:34:57.248Z,0.30
2023-06-27T17:37:25.660Z,0.40
2023-06-27T17:39:54.082Z,0.30
2023-06-27T17:42:23.662Z,0.40
2023-06-27T17:44:51.969Z,0.40
2023-06-27T17:47:20.326Z,0.40
2023-06-27T17:49:48.705Z,0.40
2023-06-27T17:52:16.963Z,0.40
2023-06-27T17:54:45.329Z,0.40
2023-06-27T17:57:13.645Z,0.40
2023-06-27T17:59:43.365Z,0.40
2023-06-27T18:02:11.806Z,0.47
2023-06-27T18:04:40.266Z,0.50
2023-06-27T18:07:08.864Z,0.40
2023-06-27T18:09:38.007Z,0.50
2023-06-27T18:12:07.403Z,0.43
2023-06-27T18:14:35.667Z,0.50
2023-06-27T18:17:07.043Z,0.40
2023-06-27T18:19:37.200Z,0.50
2023-06-27T18:22:06.686Z,0.40
2023-06-27T18:24:35.092Z,0.50
2023-06-27T18:27:03.444Z,0.50
2023-06-27T18:29:31.835Z,0.50
2023-06-27T18:32:00.349Z,0.40
2023-06-27T18:34:30.057Z,0.40
2023-06-27T18:36:58.378Z,0.45
2023-06-27T18:39:26.619Z,0.40
2023-06-27T18:41:54.943Z,0.50
2023-06-27T18:44:23.759Z,0.50
2023-06-27T18:46:52.115Z,0.40
2023-06-27T18:49:20.429Z,0.45
2023-06-27T18:51:50.117Z,0.40
2023-06-27T18:54:18.447Z,0.50
2023-06-27T18:56:46.826Z,0.45
2023-06-27T18:59:16.403Z,0.50
2023-06-27T19:01:44.759Z,0.40
2023-06-27T19:04:15.160Z,0.47
2023-06-27T19:06:43.875Z,0.50
2023-06-27T19:09:13.462Z,0.50
2023-06-27T19:11:41.680Z,0.50
2023-06-27T19:14:13.546Z,0.40
2023-06-27T19:16:42.398Z,0.50
2023-06-27T19:19:12.046Z,0.50
2023-06-27T19:21:41.649Z,0.50
2023-06-27T19:24:12.233Z,0.50
2023-06-27T19:26:41.984Z,0.50
2023-06-27T19:29:10.283Z,0.50
2023-06-27T19:31:38.813Z,0.50
2023-06-27T19:34:07.114Z,0.50
2023-06-27T19:36:35.508Z,0.50
2023-06-27T19:39:04.404Z,0.50
2023-06-27T19:41:32.865Z,0.50
2023-06-27T19:44:03.100Z,0.50
2023-06-27T19:46:31.403Z,0.50
2023-06-27T19:49:00.148Z,0.50
2023-06-27T19:51:28.420Z,0.52
2023-06-27T19:53:56.743Z,0.50
2023-06-27T19:56:25.094Z,0.50
2023-06-27T19:58:53.468Z,0.52
2023-06-27T20:01:23.185Z,0.50
2023-06-27T20:03:51.969Z,0.50
2023-06-27T20:06:20.325Z,0.50
2023-06-27T20:08:49.268Z,0.60
2023-06-27T20:11:18.858Z,0.60
2023-06-27T20:13:47.262Z,0.50
2023-06-27T20:16:15.746Z,0.50
2023-06-27T20:18:46.650Z,0.55
2023-06-27T20:21:15.488Z,0.60
2023-06-27T20:23:45.847Z,0.60
2023-06-27T20:26:14.405Z,0.60
2023-06-27T20:28:42.771Z,0.57
2023-06-27T20:31:12.196Z,0.57
2023-06-27T20:33:42.328Z,0.50
2023-06-27T20:36:12.237Z,0.50
2023-06-27T20:38:40.543Z,0.50
2023-06-27T20:41:08.794Z,0.50
2023-06-27T20:43:37.023Z,0.50
2023-06-27T20:46:05.342Z,0.50
2023-06-27T20:48:33.763Z,0.50
2023-06-27T20:51:02.080Z,0.50
2023-06-27T20:53:31.777Z,0.50
2023-06-27T20:56:00.076Z,0.50
2023-06-27T20:58:28.459Z,0.60
2023-06-27T21:00:57.963Z,0.50
2023-06-27T21:03:26.338Z,0.50
2023-06-27T21:05:54.780Z,0.50
2023-06-27T21:08:23.219Z,0.50
2023-06-27T21:10:52.905Z,0.60
2023-06-27T21:13:21.648Z,0.60
2023-06-27T21:15:49.977Z,0.60
2023-06-27T21:18:18.344Z,0.60
2023-06-27T21:20:46.693Z,0.60
2023-06-27T21:23:15.178Z,0.55
2023-06-27T21:25:43.448Z,0.60
2023-06-27T21:28:13.108Z,0.60
2023-06-27T21:30:42.216Z,0.60
2023-06-27T21:33:10.725Z,0.60
2023-06-27T21:35:39.187Z,0.60
2023-06-27T21:38:07.497Z,0.60
2023-06-27T21:40:35.893Z,0.50
2023-06-27T21:43:05.706Z,0.60
2023-06-27T21:45:35.365Z,0.60
2023-06-27T21:48:03.665Z,0.60
2023-06-27T21:50:32.706Z,0.60
2023-06-27T21:53:00.983Z,0.50
2023-06-27T21:55:29.490Z,0.57
2023-06-27T21:57:58.266Z,0.50
2023-06-27T22:00:26.626Z,0.60
2023-06-27T22:02:56.483Z,0.50
2023-06-27T22:05:25.018Z,0.60
2023-06-27T22:07:54.148Z,0.60
2023-06-27T22:10:23.649Z,0.60
2023-06-27T22:12:52.131Z,0.60
2023-06-27T22:15:20.451Z,0.57
2023-06-27T22:17:49.476Z,0.60
2023-06-27T22:20:19.243Z,0.50
2023-06-27T22:22:47.516Z,0.60
2023-06-27T22:25:17.746Z,0.60
2023-06-27T22:27:46.046Z,0.50
2023-06-27T22:30:14.754Z,0.60
2023-06-27T22:32:43.101Z,0.50
2023-06-27T22:35:11.609Z,0.60
2023-06-27T22:37:41.228Z,0.60
2023-06-27T22:40:11.111Z,0.60
2023-06-27T22:42:39.433Z,0.50
2023-06-27T22:45:08.882Z,0.57
2023-06-27T22:47:37.961Z,0.60
2023-06-27T22:50:07.884Z,0.52
2023-06-27T22:52:36.212Z,0.50
2023-06-27T22:55:06.933Z,0.60
2023-06-27T22:57:36.648Z,0.55
2023-06-27T23:00:08.883Z,0.60
2023-06-27T23:02:37.216Z,0.60
2023-06-27T23:05:06.856Z,0.60
2023-06-27T23:07:35.511Z,0.60
2023-06-27T23:10:05.978Z,0.50
2023-06-27T23:12:36.442Z,0.50
2023-06-27T23:15:05.896Z,0.60
2023-06-27T23:17:34.955Z,0.60
2023-06-27T23:20:05.449Z,0.60
2023-06-27T23:22:37.765Z,0.60
2023-06-27T23:25:08.685Z,0.60
2023-06-27T23:27:41.690Z,0.57
2023-06-27T23:30:13.812Z,0.60
2023-06-27T23:32:42.140Z,0.60
2023-06-27T23:35:11.436Z,0.60
2023-06-27T23:37:39.771Z,0.60
2023-06-27T23:40:11.573Z,0.60
2023-06-27T23:42:39.882Z,0.60
2023-06-27T23:45:09.443Z,0.60
2023-06-27T23:47:37.918Z,0.60
2023-06-27T23:50:07.907Z,0.50
2023-06-27T23:52:36.345Z,0.60
2023-06-27T23:55:05.276Z,0.50
2023-06-27T23:57:35.061Z,0.60
